Time;durP1;ratioP1;P1;durP2;ratioP2;P2;SDS_P1;SDS_P2;PMS_P1;PMS_P2;Temp;Humidity;BMP_temperature;BMP_pressure;BME280_temperature;BME280_humidity;BME280_pressure;Samples;Min_cycle;Max_cycle;Signal;HPM_P1;HPM_P2
2022/02/25 00:02:19;;;;;;;46.30;25.70;;;;;;;8.31;54.42;101463.31;5106407;28;20040;-59
2022/02/25 00:04:45;;;;;;;43.25;26.17;;;;;;;8.32;54.57;101467.63;5111770;28;20048;-61
2022/02/25 00:07:12;;;;;;;52.58;27.90;;;;;;;8.31;54.53;101467.69;5108393;28;20044;-60
2022/02/25 00:09:41;;;;;;;45.80;26.55;;;;;;;8.30;54.71;101460.75;5110771;28;20118;-60
2022/02/25 00:12:08;;;;;;;53.80;27.63;;;;;;;8.29;54.89;101466.88;5109698;28;20059;-59
2022/02/25 00:14:34;;;;;;;44.15;25.52;;;;;;;8.28;54.85;101466.03;5107070;28;20097;-59
2022/02/25 00:17:01;;;;;;;42.47;24.92;;;;;;;8.28;54.82;101463.41;5105260;28;20488;-59
2022/02/25 00:19:27;;;;;;;45.08;24.63;;;;;;;8.28;55.17;101466.03;5111498;28;20480;-60
2022/02/25 00:21:54;;;;;;;45.15;25.95;;;;;;;8.25;55.22;101473.13;5111304;28;20040;-60
2022/02/25 00:24:21;;;;;;;41.72;25.33;;;;;;;8.25;55.01;101479.22;5106667;28;20039;-60
2022/02/25 00:26:48;;;;;;;46.70;26.17;;;;;;;8.24;55.12;101474.03;5111256;28;20085;-59
2022/02/25 00:29:14;;;;;;;44.97;25.75;;;;;;;8.21;55.21;101477.59;5108818;28;20116;-59
2022/02/25 00:31:41;;;;;;;40.90;25.83;;;;;;;8.20;55.37;101477.66;5105186;28;20039;-60
2022/02/25 00:34:07;;;;;;;41.00;24.88;;;;;;;8.17;55.38;101479.47;5102832;28;20117;-60
2022/02/25 00:36:34;;;;;;;43.55;24.20;;;;;;;8.12;55.41;101483.16;5103978;28;20051;-60
2022/02/25 00:39:01;;;;;;;44.03;25.25;;;;;;;8.10;55.33;101478.00;5104342;28;20082;-59
2022/02/25 00:41:27;;;;;;;42.75;25.60;;;;;;;8.05;55.44;101479.03;5102082;28;20047;-60
2022/02/25 00:43:54;;;;;;;39.25;23.63;;;;;;;7.98;55.32;101475.78;5104201;28;20097;-60
2022/02/25 00:46:21;;;;;;;39.50;23.13;;;;;;;7.88;55.34;101477.84;5103117;28;20051;-59
2022/02/25 00:48:49;;;;;;;38.90;23.30;;;;;;;7.82;55.46;101478.06;5104713;28;20036;-61
2022/02/25 00:51:16;;;;;;;39.08;24.20;;;;;;;7.80;55.39;101482.50;5109496;28;20047;-59
2022/02/25 00:53:43;;;;;;;41.67;24.77;;;;;;;7.75;55.28;101480.03;5103487;28;20079;-59
2022/02/25 00:56:10;;;;;;;44.63;26.02;;;;;;;7.75;55.31;101474.81;5109227;28;20040;-60
2022/02/25 00:58:36;;;;;;;45.20;26.05;;;;;;;7.70;55.40;101474.09;5106966;27;20089;-60
2022/02/25 01:01:03;;;;;;;38.45;23.45;;;;;;;7.66;55.16;101470.72;5112316;28;20100;-59
2022/02/25 01:03:30;;;;;;;39.83;25.05;;;;;;;7.66;55.36;101467.28;5108237;28;20047;-59
2022/02/25 01:05:57;;;;;;;41.08;23.85;;;;;;;7.64;55.13;101464.72;5103833;28;20123;-61
2022/02/25 01:08:25;;;;;;;38.97;24.27;;;;;;;7.64;55.09;101462.09;5100168;27;20446;-59
2022/02/25 01:10:52;;;;;;;44.70;24.30;;;;;;;7.69;55.10;101451.50;5099278;28;20044;-59
2022/02/25 01:13:19;;;;;;;40.47;24.42;;;;;;;7.66;55.30;101456.81;5101343;28;20417;-59
2022/02/25 01:15:45;;;;;;;42.30;24.80;;;;;;;7.66;55.38;101456.81;5098378;28;20044;-59
2022/02/25 01:18:12;;;;;;;42.25;25.67;;;;;;;7.66;55.84;101465.50;5102505;28;20051;-60
2022/02/25 01:20:39;;;;;;;41.03;24.67;;;;;;;7.62;55.90;101458.69;5098233;28;20533;-59
2022/02/25 01:23:07;;;;;;;40.67;24.05;;;;;;;7.59;56.11;101461.41;5101746;28;20556;-59
2022/02/25 01:25:33;;;;;;;46.28;26.10;;;;;;;7.57;56.15;101457.09;5098593;28;20040;-59
2022/02/25 01:28:00;;;;;;;42.90;25.58;;;;;;;7.54;56.32;101452.84;5100230;28;21123;-59
2022/02/25 01:30:26;;;;;;;43.85;24.88;;;;;;;7.56;56.48;101451.03;5100102;28;20043;-59
2022/02/25 01:32:53;;;;;;;40.67;24.75;;;;;;;7.60;56.17;101450.03;5098320;28;20080;-59
2022/02/25 01:35:24;;;;;;;42.42;24.17;;;;;;;7.56;56.28;101443.22;5101170;28;20054;-59
2022/02/25 01:37:51;;;;;;;41.88;24.88;;;;;;;7.58;56.58;101449.25;5097646;28;20048;-59
2022/02/25 01:40:18;;;;;;;44.15;24.77;;;;;;;7.56;56.50;101443.22;5101832;28;20043;-59
2022/02/25 01:42:47;;;;;;;39.58;25.05;;;;;;;7.51;56.54;101451.19;5098035;28;20044;-60
2022/02/25 01:45:16;;;;;;;38.83;24.33;;;;;;;7.52;56.31;101444.22;5097965;28;20043;-59
2022/02/25 01:47:44;;;;;;;37.67;23.17;;;;;;;7.48;56.50;101440.84;5100535;28;20522;-59
2022/02/25 01:50:12;;;;;;;41.28;24.10;;;;;;;7.48;56.59;101445.22;5114323;28;20487;-60
2022/02/25 01:52:59;;;;;;;43.20;24.70;;;;;;;7.47;56.66;101425.22;5114019;28;20052;-60
2022/02/25 01:55:26;;;;;;;37.70;24.80;;;;;;;7.47;56.54;101433.06;5113499;27;20040;-59
2022/02/25 01:57:53;;;;;;;38.80;24.52;;;;;;;7.46;56.88;101431.34;5099900;28;20507;-59
2022/02/25 02:00:20;;;;;;;37.38;24.05;;;;;;;7.49;56.93;101426.88;5114313;28;20039;-59
2022/02/25 02:02:49;;;;;;;36.42;23.60;;;;;;;7.47;56.91;101430.47;5113844;28;20108;-60
2022/02/25 02:05:16;;;;;;;42.35;25.23;;;;;;;7.46;56.83;101428.75;5113996;28;20559;-60
2022/02/25 02:07:43;;;;;;;38.65;24.63;;;;;;;7.45;56.82;101420.06;5113587;28;20468;-59
2022/02/25 02:10:10;;;;;;;36.72;24.13;;;;;;;7.45;57.04;101419.19;5114014;28;20043;-59
2022/02/25 02:12:37;;;;;;;37.17;24.33;;;;;;;7.43;56.96;101421.03;5103273;27;20044;-59
2022/02/25 02:15:05;;;;;;;40.03;24.20;;;;;;;7.42;56.95;101417.53;5113525;28;20096;-59
2022/02/25 02:17:32;;;;;;;39.55;24.55;;;;;;;7.34;57.06;101414.34;5113529;28;20040;-60
2022/02/25 02:20:01;;;;;;;38.17;25.00;;;;;;;7.32;57.11;101418.75;5113634;28;20483;-59
2022/02/25 02:22:28;;;;;;;39.78;24.98;;;;;;;7.30;57.06;101413.56;5113680;28;20055;-60
2022/02/25 02:24:56;;;;;;;41.80;25.23;;;;;;;7.32;56.97;101414.38;5113078;28;20040;-59
2022/02/25 02:28:17;;;;;;;39.50;24.77;;;;;;;7.34;57.07;101415.19;5109221;28;20066;-59
2022/02/25 02:30:11;;;;;;;37.55;25.02;;;;;;;7.36;57.20;101404.69;5113061;28;20069;-60
2022/02/25 02:32:37;;;;;;;42.97;25.15;;;;;;;7.35;57.46;101403.84;5113669;28;20044;-59
2022/02/25 02:35:05;;;;;;;40.28;25.85;;;;;;;7.28;57.46;101399.72;5113224;28;20044;-59
2022/02/25 02:37:32;;;;;;;38.28;24.15;;;;;;;7.24;57.53;101402.47;5113122;28;20085;-59
2022/02/25 02:39:59;;;;;;;39.25;24.33;;;;;;;7.22;57.55;101399.91;5113097;28;20372;-59
2022/02/25 02:42:25;;;;;;;38.53;24.30;;;;;;;7.21;57.73;101398.19;5113154;28;20047;-59
2022/02/25 02:44:52;;;;;;;38.05;24.20;;;;;;;7.18;57.53;101403.53;5102292;28;20040;-60
2022/02/25 02:47:18;;;;;;;37.60;24.02;;;;;;;7.16;57.72;101398.34;5110125;28;20039;-59
2022/02/25 02:49:45;;;;;;;38.00;25.20;;;;;;;7.18;57.36;101399.13;5113175;28;20039;-59
2022/02/25 02:52:12;;;;;;;40.63;24.65;;;;;;;7.21;57.67;101403.41;5112981;28;20073;-60
2022/02/25 02:54:38;;;;;;;40.13;25.05;;;;;;;7.22;57.78;101399.06;5112806;28;20446;-59
2022/02/25 02:57:05;;;;;;;39.90;25.85;;;;;;;7.22;58.02;101401.69;5113150;28;20052;-60
2022/02/25 02:59:31;;;;;;;38.80;24.27;;;;;;;7.23;57.90;101398.16;5112822;28;20040;-59
2022/02/25 03:01:58;;;;;;;48.53;26.48;;;;;;;7.22;58.20;101394.69;5108396;28;20063;-60
2022/02/25 03:04:25;;;;;;;43.08;27.08;;;;;;;7.31;57.98;101401.38;5110613;28;20047;-60
2022/02/25 03:06:52;;;;;;;40.28;25.70;;;;;;;7.28;58.09;101399.72;5112745;28;20400;-59
2022/02/25 03:09:18;;;;;;;44.20;25.13;;;;;;;7.25;58.34;101397.22;5112815;28;20491;-60
2022/02/25 03:11:45;;;;;;;41.00;24.85;;;;;;;7.25;58.30;101394.59;5112583;28;20039;-59
2022/02/25 03:14:12;;;;;;;41.60;25.17;;;;;;;7.24;58.38;101403.34;5112585;28;20044;-61
2022/02/25 03:16:38;;;;;;;39.00;25.80;;;;;;;7.23;58.44;101400.78;5112755;28;20058;-59
2022/02/25 03:19:05;;;;;;;44.72;25.90;;;;;;;7.25;58.58;101407.66;5101510;28;20049;-59
2022/02/25 03:21:31;;;;;;;39.13;24.58;;;;;;;7.23;58.65;101403.38;5111417;28;20111;-59
2022/02/25 03:23:58;;;;;;;42.22;25.88;;;;;;;7.23;58.65;101406.84;5112185;28;20454;-59
2022/02/25 03:26:24;;;;;;;40.88;24.52;;;;;;;7.19;58.81;101400.84;5112589;28;20450;-60
2022/02/25 03:28:51;;;;;;;40.20;25.38;;;;;;;7.13;58.65;101401.03;5111908;28;20047;-59
2022/02/25 03:31:18;;;;;;;37.00;23.48;;;;;;;7.09;58.57;101398.59;5112352;28;20082;-59
2022/02/25 03:33:44;;;;;;;37.35;23.00;;;;;;;7.02;58.67;101401.41;5104630;28;20105;-60
2022/02/25 03:36:16;;;;;;;36.80;22.88;;;;;;;6.94;58.99;101402.53;5092215;28;20492;-59
2022/02/25 03:38:42;;;;;;;36.55;22.30;;;;;;;6.91;58.54;101395.66;5091800;28;20044;-60
2022/02/25 03:41:10;;;;;;;36.47;22.17;;;;;;;6.95;58.22;101394.66;5092220;28;20101;-59
2022/02/25 03:43:37;;;;;;;33.92;21.45;;;;;;;6.98;58.32;101402.41;5092175;28;20454;-59
2022/02/25 03:46:04;;;;;;;36.05;21.77;;;;;;;6.99;58.31;101398.88;5098812;28;20040;-59
2022/02/25 03:48:30;;;;;;;37.47;21.83;;;;;;;6.98;58.34;101397.19;5112326;28;20054;-59
2022/02/25 03:50:57;;;;;;;36.25;21.10;;;;;;;6.99;58.22;101392.81;5096749;28;20500;-59
2022/02/25 03:53:23;;;;;;;33.28;20.60;;;;;;;6.97;58.13;101402.44;5111691;28;20113;-59
2022/02/25 03:55:50;;;;;;;37.33;21.38;;;;;;;6.95;58.18;101399.88;5093502;28;20433;-59
2022/02/25 03:58:17;;;;;;;34.35;20.50;;;;;;;6.98;58.09;101396.31;5112038;28;20179;-59
2022/02/25 04:00:43;;;;;;;31.88;20.25;;;;;;;6.99;58.12;101400.63;5111395;28;20093;-59
2022/02/25 04:03:10;;;;;;;34.70;20.90;;;;;;;6.97;57.98;101403.31;5108840;28;20056;-59
2022/02/25 04:05:37;;;;;;;35.97;21.38;;;;;;;6.92;58.30;101402.59;5103890;28;20048;-59
2022/02/25 04:08:04;;;;;;;37.50;21.05;;;;;;;6.96;58.22;101400.75;5104540;28;20480;-60
2022/02/25 04:10:33;;;;;;;36.67;22.35;;;;;;;6.91;58.07;101397.41;5102258;28;20044;-59
2022/02/25 04:12:59;;;;;;;39.35;22.50;;;;;;;6.80;58.35;101400.34;5102299;28;20063;-60
2022/02/25 04:15:26;;;;;;;35.03;21.10;;;;;;;6.74;58.14;101403.13;5103506;28;20096;-59
2022/02/25 04:17:52;;;;;;;40.17;21.40;;;;;;;6.70;58.02;101407.59;5100767;28;20044;-60
2022/02/25 04:20:19;;;;;;;38.15;21.98;;;;;;;6.68;57.86;101406.78;5104482;28;20055;-59
2022/02/25 04:22:46;;;;;;;44.22;22.00;;;;;;;6.65;58.01;101404.25;5099501;28;20451;-58
2022/02/25 04:25:14;;;;;;;38.67;20.20;;;;;;;6.60;57.98;101407.03;5095129;28;20043;-59
2022/02/25 04:27:40;;;;;;;30.55;19.05;;;;;;;6.58;57.55;101411.41;5100470;28;20070;-59
2022/02/25 04:30:07;;;;;;;37.53;20.27;;;;;;;6.53;57.75;101408.09;5103343;28;20047;-59
2022/02/25 04:32:34;;;;;;;45.55;22.17;;;;;;;6.48;57.46;101403.00;5102288;28;20052;-59
2022/02/25 04:35:01;;;;;;;37.28;22.33;;;;;;;6.48;57.61;101404.75;5101840;28;20109;-59
2022/02/25 04:37:27;;;;;;;41.65;22.45;;;;;;;6.53;57.49;101398.50;5103945;28;20062;-59
2022/02/25 04:39:54;;;;;;;41.88;23.88;;;;;;;6.58;57.48;101398.38;5102047;28;20073;-59
2022/02/25 04:42:22;;;;;;;37.63;23.15;;;;;;;6.61;57.75;101398.28;5107772;28;20075;-59
2022/02/25 04:44:49;;;;;;;42.22;23.42;;;;;;;6.66;57.60;101403.38;5097217;28;20063;-59
2022/02/25 04:47:16;;;;;;;44.80;23.85;;;;;;;6.64;57.79;101412.97;5108921;28;20044;-59
2022/02/25 04:49:43;;;;;;;35.67;22.23;;;;;;;6.62;58.02;101409.56;5111937;28;20064;-60
2022/02/25 04:52:12;;;;;;;39.50;23.58;;;;;;;6.65;57.90;101410.34;5112114;28;20093;-59
2022/02/25 04:54:39;;;;;;;39.53;24.70;;;;;;;6.68;57.93;101402.41;5111861;28;20502;-60
2022/02/25 04:57:06;;;;;;;39.72;23.67;;;;;;;6.69;58.03;101409.34;5112032;28;20051;-59
2022/02/25 04:59:32;;;;;;;40.95;24.02;;;;;;;6.72;58.04;101413.63;5097937;27;20645;-60
2022/02/25 05:01:59;;;;;;;39.67;25.23;;;;;;;6.72;58.21;101412.75;5111678;28;20047;-59
2022/02/25 05:04:26;;;;;;;42.55;24.52;;;;;;;6.69;58.53;101419.78;5111810;28;20164;-60
2022/02/25 05:06:52;;;;;;;40.67;23.45;;;;;;;6.67;58.40;101424.19;5111774;28;20048;-59
2022/02/25 05:09:19;;;;;;;41.67;24.13;;;;;;;6.66;58.56;101438.13;5111782;28;20051;-60
2022/02/25 05:11:45;;;;;;;43.35;25.00;;;;;;;6.64;58.69;101434.72;5111090;28;20080;-59
2022/02/25 05:20:15;;;;;;;42.42;23.98;;;;;;;6.54;58.80;101441.09;5048437;28;20221;-59
2022/02/25 05:22:44;;;;;;;38.65;22.92;;;;;;;6.49;58.72;101432.56;5104484;28;20134;-59
2022/02/25 05:25:11;;;;;;;39.70;21.88;;;;;;;6.46;58.75;101440.44;5110622;28;20080;-59
2022/02/25 05:27:38;;;;;;;38.42;23.42;;;;;;;6.44;58.54;101440.50;5110462;28;20048;-59
2022/02/25 05:30:11;;;;;;;44.08;25.38;;;;;;;6.44;58.53;101443.09;5109419;28;20043;-59
2022/02/25 05:32:37;;;;;;;41.85;24.75;;;;;;;6.43;58.61;101450.97;5110817;28;20088;-60
2022/02/25 05:35:06;;;;;;;37.38;23.52;;;;;;;6.38;58.74;101445.88;5109448;28;20096;-59
2022/02/25 05:37:32;;;;;;;37.45;22.73;;;;;;;6.36;58.26;101461.56;5110548;28;20051;-59
2022/02/25 05:39:59;;;;;;;39.33;24.20;;;;;;;6.35;58.38;101467.66;5109549;28;20048;-59
2022/02/25 05:42:27;;;;;;;41.08;23.80;;;;;;;6.36;58.53;101465.91;5109257;27;20043;-60
2022/02/25 05:44:53;;;;;;;40.30;24.05;;;;;;;6.31;58.55;101460.84;5098797;28;20059;-59
2022/02/25 05:47:20;;;;;;;41.10;24.13;;;;;;;6.30;58.39;101461.72;5104581;28;20039;-59
2022/02/25 05:49:46;;;;;;;45.17;24.55;;;;;;;6.30;58.32;101466.09;5110323;28;20052;-59
2022/02/25 05:52:13;;;;;;;44.05;24.90;;;;;;;6.27;58.54;101472.25;5107606;28;20040;-59
2022/02/25 05:54:40;;;;;;;44.28;26.65;;;;;;;6.20;58.66;101471.53;5108530;28;20116;-59
2022/02/25 05:57:06;;;;;;;42.55;24.58;;;;;;;6.18;58.48;101477.69;5106799;28;20048;-59
2022/02/25 05:59:33;;;;;;;43.20;25.13;;;;;;;6.16;58.46;101479.50;5108297;28;20391;-59
2022/02/25 06:01:59;;;;;;;47.22;25.65;;;;;;;6.18;58.37;101480.28;5108584;28;20762;-59
2022/02/25 06:04:26;;;;;;;45.28;25.17;;;;;;;6.21;58.47;101477.63;5099754;27;20040;-60
2022/02/25 06:06:55;;;;;;;40.92;25.20;;;;;;;6.20;58.41;101475.91;5100534;28;20403;-59
2022/02/25 06:09:22;;;;;;;39.13;24.58;;;;;;;6.13;58.59;101482.16;5105405;28;20048;-59
2022/02/25 06:11:48;;;;;;;40.15;24.65;;;;;;;6.12;58.42;101478.72;5107790;28;20044;-61
2022/02/25 06:14:15;;;;;;;41.47;24.77;;;;;;;6.09;58.32;101480.53;5105140;28;20557;-61
2022/02/25 06:16:42;;;;;;;43.13;24.38;;;;;;;6.05;58.41;101491.03;5108212;28;20035;-61
2022/02/25 06:19:08;;;;;;;45.20;23.92;;;;;;;6.04;58.31;101489.34;5098671;28;20048;-62
2022/02/25 06:21:35;;;;;;;42.03;24.65;;;;;;;6.08;58.24;101491.84;5102637;28;20100;-59
2022/02/25 06:24:02;;;;;;;43.60;25.33;;;;;;;6.12;58.32;101486.53;5100042;28;20130;-60
2022/02/25 06:26:29;;;;;;;42.05;24.92;;;;;;;6.15;58.21;101491.66;5100710;28;20048;-60
2022/02/25 06:28:57;;;;;;;47.40;25.00;;;;;;;6.14;58.39;101495.16;5090313;27;20048;-59
2022/02/25 06:31:24;;;;;;;44.60;25.40;;;;;;;6.14;58.53;101489.94;5096999;28;20094;-58
2022/02/25 06:33:50;;;;;;;46.22;25.83;;;;;;;6.14;58.34;101495.16;5098187;28;20043;-59
2022/02/25 06:36:17;;;;;;;47.03;26.25;;;;;;;6.16;58.56;101509.00;5094820;28;20044;-59
2022/02/25 06:38:46;;;;;;;45.00;25.52;;;;;;;6.18;58.43;101509.84;5100036;28;20036;-60
2022/02/25 06:41:12;;;;;;;50.90;26.00;;;;;;;6.21;58.39;101514.09;5095197;28;20047;-61
2022/02/25 06:43:39;;;;;;;47.97;25.42;;;;;;;6.23;58.49;101512.28;5099199;28;20043;-60
2022/02/25 06:46:08;;;;;;;46.55;25.00;;;;;;;6.26;58.46;101517.44;5100986;28;20079;-60
2022/02/25 06:48:35;;;;;;;44.88;25.52;;;;;;;6.30;58.26;101520.84;5101762;28;20035;-60
2022/02/25 06:51:02;;;;;;;53.40;26.38;;;;;;;6.33;58.29;101521.59;5095151;28;20130;-59
2022/02/25 06:53:28;;;;;;;52.10;28.13;;;;;;;6.38;58.50;101526.69;5093989;27;20044;-60
2022/02/25 06:55:55;;;;;;;47.95;26.42;;;;;;;6.32;58.57;101522.50;5094178;28;20093;-61
2022/02/25 06:58:22;;;;;;;43.35;26.65;;;;;;;6.41;58.52;101526.59;5094054;28;20102;-62
2022/02/25 07:00:49;;;;;;;41.97;25.10;;;;;;;6.46;58.51;101529.97;5092770;28;20113;-62
2022/02/25 07:03:16;;;;;;;45.25;24.67;;;;;;;6.46;58.58;101531.69;5092390;28;20054;-62
2022/02/25 07:05:43;;;;;;;42.92;23.85;;;;;;;6.51;58.66;101530.69;5099730;28;20040;-62
2022/02/25 07:08:13;;;;;;;41.33;23.90;;;;;;;6.53;58.32;101535.84;5101043;28;20079;-62
2022/02/25 07:10:40;;;;;;;41.10;24.70;;;;;;;6.61;58.41;101533.88;5090336;28;20040;-62
2022/02/25 07:13:09;;;;;;;43.10;25.27;;;;;;;6.65;58.47;101530.31;5092394;28;20062;-62
2022/02/25 07:15:36;;;;;;;42.28;25.58;;;;;;;6.72;58.31;101532.72;5089777;28;20079;-62
2022/02/25 07:18:03;;;;;;;47.30;26.33;;;;;;;6.83;58.30;101535.91;5093614;28;20131;-62
2022/02/25 07:20:30;;;;;;;45.50;26.95;;;;;;;6.98;57.90;101532.00;5091095;28;20047;-62
2022/02/25 07:22:58;;;;;;;46.33;26.80;;;;;;;7.14;57.67;101541.09;5092916;28;20126;-61
2022/02/25 07:25:25;;;;;;;42.50;26.05;;;;;;;7.28;57.58;101540.69;5093195;28;20052;-62
2022/02/25 07:27:52;;;;;;;47.47;27.00;;;;;;;7.46;57.23;101539.25;5097492;28;20047;-62
2022/02/25 07:30:27;;;;;;;43.55;26.10;;;;;;;7.63;57.05;101537.88;5096740;28;20048;-62
2022/02/25 07:32:59;;;;;;;43.38;27.13;;;;;;;7.82;56.66;101544.25;5098864;28;20043;-62
2022/02/25 07:35:26;;;;;;;40.45;26.45;;;;;;;7.83;56.44;101540.75;5093324;28;20060;-61
2022/02/25 07:37:53;;;;;;;42.75;26.20;;;;;;;7.75;56.82;101547.09;5091427;28;20563;-62
2022/02/25 07:40:22;;;;;;;42.97;26.92;;;;;;;7.81;56.67;101539.91;5094955;28;20079;-62
2022/02/25 07:42:49;;;;;;;43.90;26.40;;;;;;;7.94;56.57;101539.53;5091165;28;20040;-62
2022/02/25 07:45:16;;;;;;;45.28;26.70;;;;;;;8.01;56.28;101548.84;5091065;28;20048;-62
2022/02/25 07:47:43;;;;;;;42.05;25.25;;;;;;;7.98;56.71;101544.59;5108335;28;20054;-62
2022/02/25 07:50:12;;;;;;;42.97;25.17;;;;;;;8.28;56.10;101543.63;5108884;28;20051;-62
2022/02/25 07:52:40;;;;;;;47.42;25.70;;;;;;;8.52;55.32;101548.94;5108386;28;20461;-62
2022/02/25 07:55:08;;;;;;;44.45;26.27;;;;;;;8.70;55.12;101550.03;5108178;28;20113;-62
2022/02/25 07:57:35;;;;;;;41.22;26.63;;;;;;;8.70;55.19;101557.91;5105393;28;20105;-62
2022/02/25 08:00:21;;;;;;;41.35;25.15;;;;;;;8.73;54.84;101563.88;5100725;28;20047;-62
2022/02/25 08:02:48;;;;;;;39.72;25.02;;;;;;;9.04;54.43;101559.28;5103670;28;20538;-60
2022/02/25 08:05:16;;;;;;;44.63;25.48;;;;;;;9.21;53.84;101556.91;5091610;28;20094;-60
2022/02/25 08:07:43;;;;;;;42.15;23.90;;;;;;;9.30;53.78;101563.56;5093360;28;20058;-60
2022/02/25 08:10:10;;;;;;;35.67;22.58;;;;;;;9.40;53.70;101559.66;5093249;28;20040;-60
2022/02/25 08:12:39;;;;;;;40.63;22.90;;;;;;;9.54;53.30;101550.44;5096470;28;20184;-60
2022/02/25 08:15:07;;;;;;;36.20;22.42;;;;;;;9.73;52.86;101551.41;5098459;28;20452;-60
2022/02/25 08:17:35;;;;;;;35.88;21.70;;;;;;;9.89;52.45;101551.66;5099409;28;20085;-60
2022/02/25 08:20:03;;;;;;;41.85;23.65;;;;;;;10.03;52.30;101547.59;5096689;28;20048;-60
2022/02/25 08:22:31;;;;;;;35.22;22.98;;;;;;;10.16;52.04;101553.16;5096034;28;20048;-60
2022/02/25 08:24:58;;;;;;;33.58;22.38;;;;;;;10.26;51.80;101555.34;5093067;28;20040;-59
2022/02/25 08:27:25;;;;;;;33.80;20.25;;;;;;;10.41;51.44;101547.78;5093611;28;20054;-59
2022/02/25 08:29:51;;;;;;;31.33;20.92;;;;;;;10.50;51.06;101549.16;5094491;28;20450;-59
2022/02/25 08:32:19;;;;;;;32.70;21.40;;;;;;;10.70;50.60;101559.63;5107938;28;20074;-59
2022/02/25 08:34:45;;;;;;;33.58;19.25;;;;;;;10.84;50.21;101559.00;5096345;27;20043;-60
2022/02/25 08:37:15;;;;;;;28.88;18.52;;;;;;;11.00;49.90;101556.56;5091152;28;20126;-59
2022/02/25 08:39:42;;;;;;;30.35;18.73;;;;;;;11.14;49.76;101552.47;5091047;28;20078;-60
2022/02/25 08:42:08;;;;;;;38.15;19.95;;;;;;;11.26;49.31;101552.75;5091393;28;20059;-60
2022/02/25 08:44:36;;;;;;;32.40;20.25;;;;;;;11.39;49.28;101547.75;5091393;28;20048;-59
2022/02/25 08:47:04;;;;;;;33.55;20.13;;;;;;;11.56;49.18;101548.72;5091082;28;20082;-59
2022/02/25 08:49:31;;;;;;;32.92;22.25;;;;;;;11.71;48.97;101555.88;5103748;28;20101;-60
2022/02/25 08:51:58;;;;;;;34.22;21.48;;;;;;;11.83;48.81;101556.22;5095352;28;20108;-60
2022/02/25 08:54:30;;;;;;;30.33;20.48;;;;;;;11.98;48.65;101558.13;5092191;28;20131;-59
2022/02/25 08:56:57;;;;;;;35.58;19.75;;;;;;;12.01;48.39;101557.97;5092134;28;20487;-59
2022/02/25 08:59:23;;;;;;;32.83;20.58;;;;;;;12.17;47.90;101555.41;5102889;28;20432;-60
2022/02/25 09:01:53;;;;;;;29.67;20.38;;;;;;;12.34;47.64;101551.94;5092833;28;20068;-60
2022/02/25 09:04:20;;;;;;;32.17;20.13;;;;;;;12.51;47.22;101550.22;5094731;28;20055;-59
2022/02/25 09:06:47;;;;;;;34.03;21.60;;;;;;;12.65;46.95;101537.19;5094530;28;20044;-59
2022/02/25 09:09:14;;;;;;;38.63;22.20;;;;;;;12.87;46.39;101536.03;5095330;28;20044;-60
2022/02/25 09:11:44;;;;;;;37.67;22.17;;;;;;;13.02;46.26;101532.56;5108185;28;20511;-60
2022/02/25 09:14:11;;;;;;;34.97;22.25;;;;;;;13.19;45.78;101536.06;5103328;28;20048;-59
2022/02/25 09:16:37;;;;;;;34.47;21.55;;;;;;;13.39;45.68;101537.63;5092105;28;20102;-60
2022/02/25 09:19:07;;;;;;;35.70;21.92;;;;;;;13.53;45.36;101534.22;5094195;28;20048;-60
2022/02/25 09:21:34;;;;;;;36.00;22.45;;;;;;;13.65;45.01;101536.19;5100793;28;20047;-59
2022/02/25 09:24:02;;;;;;;56.63;30.02;;;;;;;13.78;44.87;101538.94;5098106;28;20112;-59
2022/02/25 09:26:28;;;;;;;38.00;23.85;;;;;;;13.93;44.47;101545.16;5094188;28;20484;-60
2022/02/25 09:28:56;;;;;;;49.50;27.13;;;;;;;14.07;44.40;101532.91;5099668;28;20039;-59
2022/02/25 09:31:23;;;;;;;37.90;24.17;;;;;;;14.18;43.88;101539.28;5101808;27;20039;-59
2022/02/25 09:33:50;;;;;;;38.03;24.15;;;;;;;14.29;43.93;101536.00;5106791;28;20043;-59
2022/02/25 09:36:17;;;;;;;39.85;23.23;;;;;;;14.46;43.39;101537.63;5098428;28;20447;-59
2022/02/25 09:38:44;;;;;;;36.47;23.17;;;;;;;14.57;43.42;101542.25;5104186;28;20449;-59
2022/02/25 09:41:10;;;;;;;33.05;22.35;;;;;;;14.63;43.38;101546.31;5094937;28;20097;-59
2022/02/25 09:43:38;;;;;;;34.00;22.48;;;;;;;14.83;42.75;101537.19;5098079;28;20040;-59
2022/02/25 09:46:06;;;;;;;37.60;23.38;;;;;;;15.04;42.85;101534.16;5099327;28;20552;-59
2022/02/25 09:48:33;;;;;;;34.70;22.42;;;;;;;15.19;42.39;101535.84;5109536;28;20047;-60
2022/02/25 09:51:00;;;;;;;34.78;23.95;;;;;;;15.27;42.15;101538.00;5108137;28;20497;-60
2022/02/25 09:53:28;;;;;;;36.13;22.58;;;;;;;15.37;42.30;101533.81;5109490;28;20044;-59
2022/02/25 09:55:54;;;;;;;34.72;22.98;;;;;;;15.62;42.20;101524.28;5108636;28;20104;-59
2022/02/25 09:58:22;;;;;;;36.00;22.90;;;;;;;15.73;41.68;101523.56;5109414;28;20047;-59
2022/02/25 10:00:49;;;;;;;33.85;22.98;;;;;;;15.91;41.80;101521.53;5106511;28;20040;-60
2022/02/25 10:03:20;;;;;;;14.57;8.60;;;;;;;16.09;41.84;101520.28;5106959;28;20518;-58
2022/02/25 10:05:48;;;;;;;20.00;12.82;;;;;;;16.42;42.05;101521.59;5093113;28;20048;-59
2022/02/25 10:08:20;;;;;;;24.70;17.17;;;;;;;16.62;42.46;101524.66;5097059;28;20100;-59
2022/02/25 10:10:52;;;;;;;30.70;21.90;;;;;;;16.60;42.62;101514.16;5096147;28;20040;-59
2022/02/25 10:13:22;;;;;;;30.58;19.63;;;;;;;16.63;42.18;101511.31;5101642;28;20052;-60
2022/02/25 10:15:57;;;;;;;30.00;20.02;;;;;;;16.78;41.67;101512.00;5098718;27;20048;-59
2022/02/25 10:18:26;;;;;;;30.73;19.52;;;;;;;16.95;41.44;101513.50;5101955;28;20113;-59
2022/02/25 10:21:08;;;;;;;31.58;19.55;;;;;;;17.10;41.17;101514.22;5083400;28;20035;-60
2022/02/25 10:23:37;;;;;;;29.13;19.15;;;;;;;17.11;41.15;101515.06;5096425;28;20043;-59
2022/02/25 10:26:21;;;;;;;35.40;19.65;;;;;;;17.08;41.34;101512.63;5095967;28;20458;-59
2022/02/25 10:28:51;;;;;;;28.50;18.98;;;;;;;17.21;40.56;101515.25;5100033;28;20573;-59
2022/02/25 10:31:33;;;;;;;26.60;17.98;;;;;;;17.36;40.35;101510.63;5097203;28;20052;-59
2022/02/25 10:34:06;;;;;;;27.75;18.88;;;;;;;17.36;40.14;101508.00;5098652;28;20044;-59
2022/02/25 10:36:40;;;;;;;28.08;18.42;;;;;;;17.42;40.36;101507.50;5094475;28;20397;-60
2022/02/25 10:39:07;;;;;;;28.05;19.35;;;;;;;17.49;40.21;101498.16;5091702;28;20048;-60
2022/02/25 10:41:33;;;;;;;23.98;15.30;;;;;;;17.63;39.83;101497.94;5092820;28;20644;-60
2022/02/25 10:44:02;;;;;;;22.20;14.88;;;;;;;17.74;39.61;101477.75;5092478;28;20059;-60
2022/02/25 10:46:28;;;;;;;20.85;14.15;;;;;;;17.75;39.37;101492.69;5099282;28;20055;-60
2022/02/25 10:49:06;;;;;;;21.27;14.65;;;;;;;17.98;39.00;101484.81;5095583;28;20051;-59
2022/02/25 10:51:37;;;;;;;22.77;14.73;;;;;;;17.89;39.21;101470.41;5108631;28;20051;-63
2022/02/25 10:54:05;;;;;;;20.98;15.10;;;;;;;18.10;38.74;101481.25;5101571;28;20055;-60
2022/02/25 10:56:47;;;;;;;24.77;15.65;;;;;;;18.28;38.02;101489.59;5105910;28;20051;-59
2022/02/25 10:59:13;;;;;;;21.50;15.07;;;;;;;18.44;37.90;101489.25;5106224;28;20044;-59
2022/02/25 11:01:40;;;;;;;23.63;15.98;;;;;;;18.46;37.64;101494.44;5098425;28;20048;-59
2022/02/25 11:04:11;;;;;;;21.40;15.77;;;;;;;18.52;37.10;101484.16;5095970;28;20074;-60
2022/02/25 11:06:38;;;;;;;28.92;17.88;;;;;;;18.50;36.64;101480.81;5099758;28;20093;-59
2022/02/25 11:09:05;;;;;;;26.17;18.45;;;;;;;18.66;36.33;101480.41;5097776;28;20044;-62
2022/02/25 11:11:35;;;;;;;24.25;17.05;;;;;;;18.80;35.87;101481.97;5096887;28;20097;-62
2022/02/25 11:14:08;;;;;;;25.05;17.27;;;;;;;18.95;35.60;101474.63;5092190;28;20052;-62
2022/02/25 11:16:36;;;;;;;25.77;17.88;;;;;;;19.08;35.20;101479.78;5102873;28;20051;-62
2022/02/25 11:19:24;;;;;;;27.38;18.23;;;;;;;19.01;35.68;101476.78;5092098;28;20089;-61
2022/02/25 11:21:51;;;;;;;30.33;19.80;;;;;;;19.18;34.83;101479.91;5101706;28;20046;-62
2022/02/25 11:24:19;;;;;;;28.95;18.83;;;;;;;19.23;34.88;101478.53;5095182;28;20101;-62